Terminal Aerodrome Forecast
Issued by NWS La Crosse, WI

Home | Current Version | Previous Version | Text Only | Print | Product List | Glossary On
Versions: 1 2 3 4 5 6 7 8 9 10 11 12 13 14 15 16
000
FTUS43 KARX 232326
TAFLSE
TAF
KLSE 232326Z 2400/2424 17010KT P6SM OVC180
     FM240130 16008KT P6SM VCSH BKN090
      TEMPO 2402/2404 TSRA BKN060CB
     FM240700 17007KT 6SM BR VCSH OVC022
     FM241100 18006KT P6SM OVC008
     FM241400 20006KT P6SM OVC018
     FM242000 27007KT P6SM BKN040=

USA.gov is the U.S. government's official web portal to all federal, state and local government web resources and services.